Time;durP1;ratioP1;P1;durP2;ratioP2;P2;SDS_P1;SDS_P2;PMS_P1;PMS_P2;Temp;Humidity;BMP_temperature;BMP_pressure;BME280_temperature;BME280_humidity;BME280_pressure;Samples;Min_cycle;Max_cycle;Signal;HPM_P1;HPM_P2
2023/03/10 00:00:25;;;;;;;0.28;0.20;;;16.30;65.30;;;;;;4988234;28;45316;-71
2023/03/10 00:02:52;;;;;;;1.08;0.30;;;16.30;65.40;;;;;;4988558;28;45367;-71
2023/03/10 00:05:20;;;;;;;0.15;0.15;;;16.30;65.40;;;;;;4988631;28;45477;-71
2023/03/10 00:07:49;;;;;;;0.10;0.10;;;16.30;65.20;;;;;;4988257;28;46592;-71
2023/03/10 00:10:17;;;;;;;0.55;0.20;;;16.30;66.30;;;;;;4988389;28;45168;-71
2023/03/10 00:12:43;;;;;;;0.20;0.10;;;16.20;65.20;;;;;;4988390;28;45228;-71
2023/03/10 00:15:11;;;;;;;0.10;0.10;;;16.20;65.20;;;;;;4988257;28;45175;-71
2023/03/10 00:17:38;;;;;;;0.00;0.00;;;16.20;65.10;;;;;;4988068;28;48012;-70
2023/03/10 00:20:10;;;;;;;0.30;0.05;;;16.20;65.20;;;;;;4988134;28;45172;-71
2023/03/10 00:22:40;;;;;;;0.20;0.10;;;16.20;65.40;;;;;;4988486;28;45408;-71
2023/03/10 00:25:08;;;;;;;0.00;0.00;;;16.20;65.50;;;;;;4988516;28;45179;-71
2023/03/10 00:27:35;;;;;;;0.77;0.20;;;16.20;65.50;;;;;;4987991;28;47478;-71
2023/03/10 00:30:02;;;;;;;0.13;0.13;;;16.20;65.70;;;;;;4987824;28;45200;-71
2023/03/10 00:32:29;;;;;;;0.13;0.13;;;16.10;65.50;;;;;;4988232;28;45242;-71
2023/03/10 00:34:56;;;;;;;0.10;0.10;;;16.20;65.60;;;;;;4990702;28;45401;-71
2023/03/10 00:37:23;;;;;;;0.05;0.05;;;16.20;65.50;;;;;;4988016;28;46566;-71
2023/03/10 00:39:52;;;;;;;0.13;0.10;;;16.20;65.70;;;;;;4987977;28;45196;-71
2023/03/10 00:42:20;;;;;;;0.10;0.10;;;16.20;65.60;;;;;;4988233;28;45255;-71
2023/03/10 00:44:47;;;;;;;0.05;0.00;;;16.20;65.60;;;;;;4987871;28;45406;-71
2023/03/10 00:47:14;;;;;;;0.35;0.17;;;16.20;65.80;;;;;;4987882;28;45553;-71
2023/03/10 00:49:41;;;;;;;0.10;0.10;;;16.20;65.90;;;;;;4987635;28;45164;-71
2023/03/10 00:52:07;;;;;;;0.00;0.00;;;16.20;65.90;;;;;;4987918;28;45265;-71
2023/03/10 00:54:34;;;;;;;0.60;0.20;;;16.20;65.80;;;;;;4988304;28;45557;-71
2023/03/10 00:57:04;;;;;;;0.30;0.13;;;16.20;65.90;;;;;;4987769;28;45227;-71
2023/03/10 00:59:30;;;;;;;0.20;0.10;;;16.20;66.10;;;;;;4987713;28;45262;-71
2023/03/10 01:01:57;;;;;;;0.25;0.00;;;16.20;65.90;;;;;;4987610;28;45201;-71
2023/03/10 01:04:24;;;;;;;0.43;0.10;;;16.20;66.10;;;;;;4987592;28;45085;-71
2023/03/10 01:06:51;;;;;;;0.00;0.00;;;16.20;66.10;;;;;;4987755;28;47341;-71
2023/03/10 01:09:18;;;;;;;0.20;0.10;;;16.20;66.10;;;;;;4987408;28;45419;-71
2023/03/10 01:11:44;;;;;;;0.50;0.10;;;16.20;66.10;;;;;;4987475;28;45195;-71
2023/03/10 01:14:14;;;;;;;0.17;0.13;;;16.20;66.20;;;;;;4987696;28;45275;-71
2023/03/10 01:16:41;;;;;;;0.08;0.05;;;16.20;66.20;;;;;;4987338;28;46719;-71
2023/03/10 01:19:08;;;;;;;0.52;0.10;;;16.20;66.10;;;;;;4987166;28;45240;-71
2023/03/10 01:21:37;;;;;;;0.28;0.10;;;16.20;66.30;;;;;;4986817;28;45097;-71
2023/03/10 01:24:05;;;;;;;0.10;0.10;;;16.20;66.10;;;;;;4987510;28;45331;-71
2023/03/10 01:26:32;;;;;;;0.65;0.10;;;16.20;66.30;;;;;;4987132;28;46968;-71
2023/03/10 01:28:58;;;;;;;0.20;0.10;;;16.20;66.40;;;;;;4987282;28;45331;-71
2023/03/10 01:31:27;;;;;;;0.43;0.10;;;16.20;66.50;;;;;;4987246;28;45201;-71
2023/03/10 01:33:53;;;;;;;0.22;0.10;;;16.20;66.40;;;;;;4987391;28;45073;-71
2023/03/10 01:36:22;;;;;;;0.00;0.00;;;16.20;66.30;;;;;;4987021;28;45366;-71
2023/03/10 01:38:49;;;;;;;0.25;0.20;;;16.20;66.30;;;;;;4987005;28;45149;-71
2023/03/10 01:41:17;;;;;;;0.15;0.00;;;16.30;66.60;;;;;;4987019;28;45193;-71
2023/03/10 01:43:45;;;;;;;0.57;0.08;;;16.30;66.60;;;;;;4987163;28;45125;-71
2023/03/10 01:46:35;;;;;;;0.57;0.10;;;16.30;66.60;;;;;;4986545;28;48418;-71
2023/03/10 01:49:06;;;;;;;0.32;0.10;;;16.30;67.60;;;;;;4986846;28;45176;-71
2023/03/10 01:51:35;;;;;;;0.30;0.05;;;16.30;66.80;;;;;;4986839;28;45242;-71
2023/03/10 01:54:06;;;;;;;0.00;0.00;;;16.30;66.60;;;;;;4987034;28;45199;-71
2023/03/10 01:56:34;;;;;;;0.03;0.00;;;16.30;66.80;;;;;;4986594;28;45208;-71
2023/03/10 01:59:00;;;;;;;0.00;0.00;;;16.30;66.70;;;;;;4986766;28;45117;-71
2023/03/10 02:01:27;;;;;;;0.10;0.00;;;16.30;66.50;;;;;;4986543;28;45161;-71
2023/03/10 02:04:01;;;;;;;0.08;0.00;;;16.30;66.50;;;;;;4987069;28;45391;-71
2023/03/10 02:06:29;;;;;;;0.00;0.00;;;16.30;66.40;;;;;;4983636;28;45429;-71
2023/03/10 02:08:59;;;;;;;0.00;0.00;;;16.30;66.40;;;;;;4986636;28;45398;-71
2023/03/10 02:11:26;;;;;;;0.17;0.10;;;16.30;66.40;;;;;;4986967;28;45253;-71
2023/03/10 02:13:53;;;;;;;0.90;0.10;;;16.30;66.50;;;;;;4986721;28;45373;-71
2023/03/10 02:16:21;;;;;;;0.10;0.05;;;16.30;66.40;;;;;;4985694;28;46550;-71
2023/03/10 02:18:49;;;;;;;0.22;0.10;;;16.20;66.40;;;;;;4986382;28;45278;-71
2023/03/10 02:21:27;;;;;;;0.47;0.10;;;16.20;66.60;;;;;;4985510;28;45268;-71
2023/03/10 02:24:00;;;;;;;0.00;0.00;;;16.20;66.50;;;;;;4986436;28;45065;-71
2023/03/10 02:26:32;;;;;;;0.00;0.00;;;16.20;66.40;;;;;;4986015;28;46254;-71
2023/03/10 02:29:03;;;;;;;0.00;0.00;;;16.20;66.40;;;;;;4986152;28;45654;-71
2023/03/10 02:31:31;;;;;;;0.03;0.03;;;16.20;66.30;;;;;;4986382;28;45231;-71
2023/03/10 02:33:58;;;;;;;0.15;0.10;;;16.30;66.40;;;;;;4986398;28;45418;-71
2023/03/10 02:36:25;;;;;;;0.05;0.00;;;16.30;66.60;;;;;;4985999;28;47331;-71
2023/03/10 02:38:51;;;;;;;0.08;0.00;;;16.30;66.50;;;;;;4986242;28;45654;-71
2023/03/10 02:41:21;;;;;;;0.10;0.00;;;16.30;66.60;;;;;;4986234;28;45155;-71
2023/03/10 02:43:49;;;;;;;0.52;0.00;;;16.30;66.60;;;;;;4986313;28;45406;-71
2023/03/10 02:46:18;;;;;;;0.10;0.03;;;16.30;66.70;;;;;;4985911;28;45240;-71
2023/03/10 02:48:45;;;;;;;0.10;0.10;;;16.30;66.60;;;;;;4986183;28;45274;-71
2023/03/10 02:51:17;;;;;;;0.00;0.00;;;16.30;66.60;;;;;;4986055;28;45374;-71
2023/03/10 02:53:44;;;;;;;0.10;0.00;;;16.30;66.60;;;;;;4983382;28;45201;-71
2023/03/10 02:56:11;;;;;;;0.00;0.00;;;16.30;66.40;;;;;;4985996;28;47007;-71
2023/03/10 02:58:38;;;;;;;0.50;0.10;;;16.30;67.50;;;;;;4985658;28;45231;-71
2023/03/10 03:01:05;;;;;;;0.00;0.00;;;16.30;66.50;;;;;;4985898;28;45180;-71
2023/03/10 03:03:34;;;;;;;0.00;0.00;;;16.30;66.50;;;;;;4986257;28;45413;-71
2023/03/10 03:06:01;;;;;;;0.00;0.00;;;16.30;67.50;;;;;;4985878;28;46980;-71
2023/03/10 03:08:28;;;;;;;0.00;0.00;;;16.30;66.70;;;;;;4985730;28;45393;-71
2023/03/10 03:10:55;;;;;;;0.38;0.15;;;16.30;66.60;;;;;;4978008;28;45365;-71
2023/03/10 03:13:22;;;;;;;0.00;0.00;;;16.30;66.50;;;;;;4985896;28;45432;-71
2023/03/10 03:15:50;;;;;;;0.05;0.05;;;16.30;66.80;;;;;;4985433;28;48392;-71
2023/03/10 03:18:17;;;;;;;0.10;0.10;;;16.30;66.60;;;;;;4985697;28;45198;-71
2023/03/10 03:20:45;;;;;;;0.00;0.00;;;16.30;66.60;;;;;;4985539;28;45325;-72
2023/03/10 03:23:12;;;;;;;0.25;0.00;;;16.30;66.80;;;;;;4985390;28;45264;-72
2023/03/10 03:25:41;;;;;;;0.20;0.00;;;16.30;66.60;;;;;;4985528;28;45338;-71
2023/03/10 03:28:10;;;;;;;0.00;0.00;;;16.30;66.50;;;;;;4986181;28;45413;-71
2023/03/10 03:30:37;;;;;;;0.10;0.10;;;16.30;66.70;;;;;;4988872;28;45141;-71
2023/03/10 03:33:06;;;;;;;0.08;0.05;;;16.30;66.80;;;;;;4989128;28;45131;-71
2023/03/10 03:35:35;;;;;;;0.17;0.00;;;16.30;66.80;;;;;;4988597;28;46604;-72
2023/03/10 03:38:04;;;;;;;0.20;0.10;;;16.30;66.70;;;;;;4988460;28;45208;-71
2023/03/10 03:40:33;;;;;;;0.00;0.00;;;16.30;66.80;;;;;;4988791;28;45274;-71
2023/03/10 03:43:00;;;;;;;0.00;0.00;;;16.30;66.80;;;;;;4988694;28;45244;-71
2023/03/10 03:45:30;;;;;;;0.00;0.00;;;16.30;66.70;;;;;;4988723;28;47527;-71
2023/03/10 03:47:57;;;;;;;0.10;0.00;;;16.30;66.80;;;;;;4988567;28;45380;-71
2023/03/10 03:50:24;;;;;;;0.13;0.10;;;16.30;66.70;;;;;;4988623;28;45219;-72
2023/03/10 03:52:51;;;;;;;0.00;0.00;;;16.30;66.70;;;;;;4988861;28;45072;-71
2023/03/10 03:55:19;;;;;;;0.88;0.10;;;16.30;66.70;;;;;;4988318;28;45517;-71
2023/03/10 03:57:47;;;;;;;0.10;0.00;;;16.30;66.70;;;;;;4988193;28;45435;-71
2023/03/10 04:00:17;;;;;;;0.13;0.10;;;16.30;66.60;;;;;;4988428;28;45330;-71
2023/03/10 04:02:44;;;;;;;0.28;0.17;;;16.30;66.50;;;;;;4988424;28;45280;-71
2023/03/10 04:05:11;;;;;;;0.00;0.00;;;16.30;66.50;;;;;;4988179;28;48087;-71
2023/03/10 04:07:39;;;;;;;0.10;0.10;;;16.30;66.70;;;;;;4988206;28;45156;-71
2023/03/10 04:10:08;;;;;;;0.05;0.00;;;16.30;66.60;;;;;;4988396;28;45350;-72
2023/03/10 04:12:36;;;;;;;0.08;0.00;;;16.30;66.60;;;;;;4988389;28;45138;-71
2023/03/10 04:15:03;;;;;;;0.15;0.10;;;16.30;66.50;;;;;;4988074;28;47345;-71
2023/03/10 04:17:30;;;;;;;0.43;0.10;;;16.30;66.50;;;;;;4987932;28;45283;-71
2023/03/10 04:19:57;;;;;;;0.03;0.00;;;16.30;66.70;;;;;;4988017;28;45136;-71
2023/03/10 04:22:23;;;;;;;0.28;0.13;;;16.20;66.60;;;;;;4987630;28;45409;-71
2023/03/10 04:24:50;;;;;;;0.10;0.00;;;16.20;66.70;;;;;;4988024;28;45229;-71
2023/03/10 04:27:18;;;;;;;0.00;0.00;;;16.20;66.60;;;;;;4987966;28;45323;-71
2023/03/10 04:29:46;;;;;;;0.10;0.08;;;16.30;66.60;;;;;;4988237;28;45157;-71
2023/03/10 04:32:13;;;;;;;0.13;0.03;;;16.30;66.40;;;;;;4988155;28;45470;-71
2023/03/10 04:34:40;;;;;;;0.30;0.17;;;16.30;66.60;;;;;;4987520;28;46274;-71
2023/03/10 04:37:07;;;;;;;0.40;0.03;;;16.30;66.60;;;;;;4987880;28;45219;-71
2023/03/10 04:39:34;;;;;;;0.25;0.00;;;16.30;66.40;;;;;;4987632;28;45449;-71
2023/03/10 04:42:01;;;;;;;0.15;0.10;;;16.30;66.20;;;;;;4987961;28;45434;-71
2023/03/10 04:44:27;;;;;;;0.20;0.10;;;16.30;66.40;;;;;;4987873;28;45428;-71
2023/03/10 04:46:55;;;;;;;0.13;0.03;;;16.30;66.40;;;;;;4987671;28;45141;-72
2023/03/10 04:49:22;;;;;;;0.20;0.10;;;16.30;66.50;;;;;;4987708;28;45262;-71
2023/03/10 04:51:49;;;;;;;0.25;0.10;;;16.30;67.50;;;;;;4987741;28;45264;-71
2023/03/10 04:54:16;;;;;;;0.52;0.20;;;16.30;66.70;;;;;;4987480;28;46648;-71
2023/03/10 04:56:43;;;;;;;0.10;0.00;;;16.30;66.60;;;;;;4987453;28;45140;-71
2023/03/10 04:59:09;;;;;;;0.00;0.00;;;16.30;66.60;;;;;;4987820;28;45263;-72
2023/03/10 05:01:36;;;;;;;0.13;0.03;;;16.30;66.60;;;;;;4987460;28;45607;-71
2023/03/10 05:04:05;;;;;;;0.20;0.00;;;16.30;66.60;;;;;;4987107;28;46329;-71
2023/03/10 05:06:32;;;;;;;0.00;0.00;;;16.20;66.60;;;;;;4987496;28;45129;-71
2023/03/10 05:08:59;;;;;;;0.35;0.10;;;16.20;66.60;;;;;;4987614;28;45235;-71
2023/03/10 05:11:26;;;;;;;0.30;0.05;;;16.30;66.70;;;;;;4987183;28;45584;-71
2023/03/10 05:13:53;;;;;;;0.20;0.10;;;16.20;66.70;;;;;;4987152;28;45238;-71
2023/03/10 05:16:22;;;;;;;0.30;0.20;;;16.20;66.60;;;;;;4987064;28;45750;-71
2023/03/10 05:18:48;;;;;;;0.10;0.00;;;16.20;66.70;;;;;;4987222;28;45358;-71
2023/03/10 05:21:17;;;;;;;0.00;0.00;;;16.20;66.60;;;;;;4986764;28;45507;-71
2023/03/10 05:23:44;;;;;;;0.10;0.10;;;16.30;66.60;;;;;;4986856;28;45386;-71
2023/03/10 05:26:11;;;;;;;0.10;0.10;;;16.30;66.80;;;;;;4987099;28;45216;-71
2023/03/10 05:28:38;;;;;;;0.95;0.20;;;16.30;66.50;;;;;;4986912;28;45324;-71
2023/03/10 05:31:10;;;;;;;0.30;0.13;;;16.30;67.40;;;;;;4986778;28;45461;-71
2023/03/10 05:33:37;;;;;;;0.10;0.10;;;16.30;66.60;;;;;;4984109;28;45554;-71
2023/03/10 05:36:06;;;;;;;0.20;0.10;;;16.30;66.30;;;;;;4986939;28;45181;-71
2023/03/10 05:38:35;;;;;;;0.60;0.15;;;16.30;66.40;;;;;;4987121;28;45208;-71
2023/03/10 05:41:02;;;;;;;0.43;0.20;;;16.30;66.30;;;;;;4986866;28;45374;-71
2023/03/10 05:43:29;;;;;;;0.77;0.20;;;16.30;66.30;;;;;;4986445;28;47775;-71
2023/03/10 05:45:56;;;;;;;0.10;0.00;;;16.30;66.50;;;;;;4986674;28;45264;-71
2023/03/10 05:48:23;;;;;;;0.35;0.10;;;16.30;66.50;;;;;;4986685;28;45334;-71
2023/03/10 05:50:58;;;;;;;0.47;0.10;;;16.30;67.60;;;;;;4986144;28;45381;-71
2023/03/10 05:53:25;;;;;;;0.60;0.10;;;16.30;66.50;;;;;;4986501;28;47838;-71
2023/03/10 05:55:53;;;;;;;0.22;0.00;;;16.30;66.50;;;;;;4986307;28;45209;-71
2023/03/10 05:58:20;;;;;;;0.43;0.10;;;16.30;66.60;;;;;;4986709;28;45284;-71
2023/03/10 06:00:47;;;;;;;1.33;0.20;;;16.30;66.50;;;;;;4986836;28;45328;-71
2023/03/10 06:03:13;;;;;;;0.20;0.08;;;16.30;66.50;;;;;;4986529;28;45302;-71
2023/03/10 06:05:40;;;;;;;0.00;0.00;;;16.30;66.60;;;;;;4986707;28;45184;-71
2023/03/10 06:08:07;;;;;;;0.10;0.10;;;16.30;66.60;;;;;;4986651;28;45176;-71
2023/03/10 06:10:34;;;;;;;0.10;0.00;;;16.30;66.60;;;;;;4986356;28;45396;-71
2023/03/10 06:13:02;;;;;;;0.30;0.20;;;16.20;66.60;;;;;;4986366;28;46519;-72
2023/03/10 06:15:30;;;;;;;0.55;0.15;;;16.20;66.60;;;;;;4986142;28;45462;-72
2023/03/10 06:17:57;;;;;;;0.30;0.10;;;16.30;66.70;;;;;;4986431;28;45299;-72
2023/03/10 06:20:24;;;;;;;0.10;0.00;;;16.30;66.50;;;;;;4986158;28;45432;-71
2023/03/10 06:22:52;;;;;;;0.30;0.20;;;16.30;66.40;;;;;;4985613;28;45463;-71
2023/03/10 06:25:19;;;;;;;0.10;0.10;;;16.30;66.50;;;;;;4986000;28;45273;-72
2023/03/10 06:27:45;;;;;;;0.82;0.20;;;16.30;66.40;;;;;;4986159;28;45232;-71
2023/03/10 06:30:15;;;;;;;0.30;0.20;;;16.30;66.40;;;;;;4986443;28;45164;-71
2023/03/10 06:32:42;;;;;;;1.00;0.10;;;16.30;66.40;;;;;;4986219;28;45298;-71
2023/03/10 06:35:12;;;;;;;0.47;0.20;;;16.40;66.30;;;;;;4985923;28;45307;-70
2023/03/10 06:37:39;;;;;;;0.13;0.03;;;16.40;66.40;;;;;;4985946;28;45315;-71
2023/03/10 06:40:08;;;;;;;0.50;0.10;;;16.30;66.30;;;;;;4986388;28;45089;-72
2023/03/10 06:42:35;;;;;;;0.10;0.10;;;16.30;66.60;;;;;;5002549;28;45307;-71
2023/03/10 06:45:02;;;;;;;0.20;0.10;;;16.30;66.30;;;;;;5005591;28;45190;-71
2023/03/10 06:47:30;;;;;;;0.10;0.10;;;16.30;66.40;;;;;;4996436;28;45392;-71
2023/03/10 06:49:57;;;;;;;0.75;0.20;;;16.20;66.30;;;;;;4977218;28;45299;-70
2023/03/10 06:52:24;;;;;;;1.08;0.20;;;16.20;66.70;;;;;;4985407;28;45314;-70
2023/03/10 06:54:51;;;;;;;0.40;0.10;;;16.20;67.40;;;;;;4985038;28;45501;-71
2023/03/10 06:57:18;;;;;;;0.13;0.03;;;16.20;67.80;;;;;;4985234;28;45247;-71
2023/03/10 06:59:45;;;;;;;0.17;0.00;;;16.20;68.00;;;;;;4985813;28;45407;-71
2023/03/10 07:02:12;;;;;;;0.45;0.10;;;16.20;67.80;;;;;;4986543;28;45502;-71
2023/03/10 07:04:41;;;;;;;0.50;0.03;;;16.20;67.40;;;;;;4989713;28;45384;-72
2023/03/10 07:07:08;;;;;;;0.20;0.10;;;16.20;67.10;;;;;;4989331;28;45131;-72
2023/03/10 07:09:35;;;;;;;0.20;0.10;;;16.10;66.80;;;;;;4990050;28;45120;-72
2023/03/10 07:12:01;;;;;;;0.38;0.10;;;16.10;66.70;;;;;;4989382;28;48211;-72
2023/03/10 07:14:28;;;;;;;0.22;0.10;;;16.10;66.70;;;;;;4989467;28;45196;-71
2023/03/10 07:16:55;;;;;;;0.30;0.10;;;16.10;66.50;;;;;;4989617;28;45203;-72
2023/03/10 07:19:22;;;;;;;1.38;0.32;;;16.10;66.30;;;;;;4989245;28;45390;-71
2023/03/10 07:21:50;;;;;;;0.90;0.30;;;16.10;66.10;;;;;;4988922;28;47042;-71
2023/03/10 07:24:18;;;;;;;0.82;0.30;;;16.10;66.00;;;;;;4989291;28;45382;-71
2023/03/10 07:26:45;;;;;;;0.22;0.10;;;16.10;65.80;;;;;;4989553;28;45354;-71
2023/03/10 07:29:12;;;;;;;1.55;0.20;;;16.10;65.90;;;;;;4989179;28;45572;-71
2023/03/10 07:31:38;;;;;;;1.65;0.35;;;16.20;65.90;;;;;;4988575;28;47945;-73
2023/03/10 07:34:05;;;;;;;0.82;0.20;;;16.20;65.00;;;;;;4988897;28;45231;-74
2023/03/10 07:36:32;;;;;;;0.50;0.20;;;16.20;65.20;;;;;;4989194;28;45077;-73
2023/03/10 07:39:00;;;;;;;1.02;0.25;;;16.20;65.60;;;;;;4989057;28;45227;-74
2023/03/10 07:41:27;;;;;;;2.67;0.30;;;16.20;65.60;;;;;;4988876;28;47674;-74
2023/03/10 07:43:55;;;;;;;0.52;0.28;;;16.20;65.70;;;;;;4988889;28;45167;-74
2023/03/10 07:46:21;;;;;;;1.55;0.25;;;16.20;66.30;;;;;;4988882;28;45209;-74
2023/03/10 07:48:48;;;;;;;0.35;0.30;;;16.20;66.50;;;;;;4988946;28;45314;-74
2023/03/10 07:51:15;;;;;;;0.35;0.22;;;16.20;66.80;;;;;;4988756;28;45396;-73
2023/03/10 07:53:42;;;;;;;1.05;0.30;;;16.20;66.80;;;;;;4988490;28;45334;-74
2023/03/10 07:56:11;;;;;;;0.20;0.10;;;16.20;66.90;;;;;;4988868;28;45229;-73
2023/03/10 07:58:38;;;;;;;0.73;0.17;;;16.20;67.00;;;;;;4988772;28;45601;-73
2023/03/10 08:01:06;;;;;;;0.55;0.20;;;16.20;67.10;;;;;;4988782;28;47749;-74
2023/03/10 08:03:33;;;;;;;0.28;0.10;;;16.20;67.00;;;;;;4988412;28;45235;-74
2023/03/10 08:06:01;;;;;;;1.02;0.20;;;16.30;67.10;;;;;;4989048;28;45213;-73
2023/03/10 08:08:28;;;;;;;1.80;0.40;;;16.30;67.20;;;;;;4988544;28;45463;-73
2023/03/10 08:11:02;;;;;;;0.30;0.10;;;16.30;67.10;;;;;;4988242;28;48365;-73
2023/03/10 08:13:31;;;;;;;0.50;0.15;;;16.30;67.00;;;;;;4987785;28;45212;-73
2023/03/10 08:15:59;;;;;;;0.73;0.20;;;16.30;67.00;;;;;;4988187;28;45117;-73
2023/03/10 08:18:26;;;;;;;0.93;0.30;;;16.30;67.10;;;;;;4988621;28;45134;-73
2023/03/10 08:20:53;;;;;;;0.35;0.10;;;16.40;67.10;;;;;;4988048;28;46291;-73
2023/03/10 08:23:20;;;;;;;0.68;0.20;;;16.40;67.10;;;;;;4987744;28;45294;-73
2023/03/10 08:25:47;;;;;;;2.28;0.13;;;16.40;67.10;;;;;;4988489;28;45402;-73
2023/03/10 08:28:14;;;;;;;0.65;0.20;;;16.40;67.10;;;;;;4988515;28;45057;-73
2023/03/10 08:30:42;;;;;;;0.38;0.20;;;16.40;67.30;;;;;;4987940;28;46547;-74
2023/03/10 08:33:10;;;;;;;0.22;0.05;;;16.40;67.20;;;;;;4988069;28;45394;-74
2023/03/10 08:35:38;;;;;;;0.30;0.20;;;16.40;67.30;;;;;;4988465;28;45334;-74
2023/03/10 08:38:06;;;;;;;0.60;0.30;;;16.40;67.30;;;;;;4988381;28;45286;-74
2023/03/10 08:40:32;;;;;;;0.20;0.10;;;16.40;67.30;;;;;;4988030;28;45531;-73
2023/03/10 08:42:59;;;;;;;0.63;0.30;;;16.40;67.30;;;;;;4987729;28;45179;-74
2023/03/10 08:45:26;;;;;;;0.38;0.10;;;16.40;67.50;;;;;;4988062;28;45375;-74
2023/03/10 08:47:55;;;;;;;0.68;0.15;;;16.40;67.40;;;;;;4988090;28;45086;-74
2023/03/10 08:50:21;;;;;;;0.45;0.13;;;16.40;67.50;;;;;;4987976;28;46312;-74
2023/03/10 08:52:48;;;;;;;1.45;0.35;;;16.40;67.50;;;;;;4987881;28;45226;-74
2023/03/10 08:55:15;;;;;;;0.43;0.13;;;16.40;67.50;;;;;;4988091;28;45381;-74
2023/03/10 08:57:42;;;;;;;0.50;0.25;;;16.40;67.50;;;;;;4987886;28;45610;-74
2023/03/10 09:00:12;;;;;;;0.20;0.15;;;16.40;67.60;;;;;;4987783;28;48261;-74
2023/03/10 09:02:39;;;;;;;0.50;0.20;;;16.40;67.60;;;;;;4987545;28;45240;-74
2023/03/10 09:05:09;;;;;;;0.55;0.28;;;16.40;67.50;;;;;;4987658;28;45294;-74
2023/03/10 09:07:36;;;;;;;0.60;0.20;;;16.40;67.50;;;;;;4987704;28;45161;-74
2023/03/10 09:10:04;;;;;;;0.32;0.10;;;16.40;67.40;;;;;;4987379;28;47265;-74
2023/03/10 09:12:30;;;;;;;0.85;0.25;;;16.40;67.40;;;;;;4987450;28;45227;-74
2023/03/10 09:14:57;;;;;;;0.75;0.20;;;16.50;67.40;;;;;;4987615;28;45181;-74
2023/03/10 09:17:24;;;;;;;0.47;0.20;;;16.50;67.20;;;;;;4987775;28;45408;-73
2023/03/10 09:19:51;;;;;;;0.40;0.15;;;16.50;67.30;;;;;;4987141;28;46571;-73
2023/03/10 09:22:20;;;;;;;0.47;0.22;;;16.50;67.20;;;;;;4987091;28;45208;-73
2023/03/10 09:24:47;;;;;;;1.35;0.25;;;16.50;67.30;;;;;;4987182;28;45286;-73
2023/03/10 09:27:14;;;;;;;1.58;0.30;;;16.50;67.20;;;;;;4986217;28;45491;-73
2023/03/10 09:29:41;;;;;;;0.43;0.10;;;16.50;67.10;;;;;;4987033;28;46741;-74
2023/03/10 09:32:08;;;;;;;0.63;0.30;;;16.50;67.10;;;;;;4987718;28;45269;-74
2023/03/10 09:34:35;;;;;;;0.60;0.20;;;16.50;68.00;;;;;;4987380;28;45211;-74
2023/03/10 09:37:03;;;;;;;0.45;0.10;;;16.50;66.90;;;;;;4987293;28;45701;-74
2023/03/10 09:39:31;;;;;;;1.08;0.20;;;16.50;67.00;;;;;;4987010;28;45614;-74
2023/03/10 09:42:23;;;;;;;0.95;0.10;;;16.50;67.00;;;;;;4987449;28;45168;-74
2023/03/10 09:45:00;;;;;;;0.10;0.10;;;16.50;67.00;;;;;;4986975;28;45135;-73
2023/03/10 09:47:41;;;;;;;1.02;0.40;;;16.50;67.00;;;;;;4987624;28;45461;-73
2023/03/10 09:50:22;;;;;;;0.77;0.20;;;16.50;67.00;;;;;;4987186;28;46318;-74
2023/03/10 09:52:58;;;;;;;0.63;0.17;;;16.50;67.00;;;;;;4987017;28;45209;-73
2023/03/10 09:55:30;;;;;;;0.82;0.15;;;16.50;67.00;;;;;;4986888;28;45308;-74
2023/03/10 09:57:57;;;;;;;0.73;0.30;;;16.50;66.80;;;;;;4987230;28;45117;-74
2023/03/10 10:00:29;;;;;;;0.32;0.17;;;16.50;66.90;;;;;;4986598;28;46806;-73
2023/03/10 10:03:03;;;;;;;0.55;0.20;;;16.50;66.90;;;;;;4986933;28;46363;-73
2023/03/10 10:05:33;;;;;;;0.10;0.10;;;16.50;67.00;;;;;;4986673;28;45247;-73
2023/03/10 10:08:04;;;;;;;0.20;0.05;;;16.50;67.10;;;;;;4986982;28;45211;-74
2023/03/10 10:10:37;;;;;;;0.60;0.10;;;16.50;67.00;;;;;;4986760;28;48226;-74
2023/03/10 10:13:13;;;;;;;0.52;0.20;;;16.50;66.90;;;;;;4987162;28;45122;-74
2023/03/10 10:15:44;;;;;;;0.80;0.20;;;16.50;67.10;;;;;;4986814;28;45069;-74
2023/03/10 10:18:14;;;;;;;0.60;0.10;;;16.50;66.80;;;;;;4986888;28;45187;-74
2023/03/10 10:20:48;;;;;;;0.85;0.30;;;16.60;67.70;;;;;;4987069;28;45196;-74
2023/03/10 10:23:20;;;;;;;0.43;0.28;;;16.50;66.40;;;;;;4986067;28;45148;-74
2023/03/10 10:25:48;;;;;;;0.20;0.10;;;16.60;66.40;;;;;;4986418;28;45223;-74
2023/03/10 10:28:23;;;;;;;0.32;0.20;;;16.50;66.40;;;;;;4986431;28;45322;-73
2023/03/10 10:30:50;;;;;;;0.20;0.13;;;16.50;66.20;;;;;;4983410;28;46507;-74
2023/03/10 10:33:17;;;;;;;0.40;0.08;;;16.50;66.10;;;;;;4986597;28;45271;-74
2023/03/10 10:35:46;;;;;;;1.02;0.10;;;16.50;66.30;;;;;;4986254;28;45367;-74
2023/03/10 10:38:25;;;;;;;0.30;0.10;;;16.50;66.40;;;;;;4984681;28;45402;-75
2023/03/10 10:41:01;;;;;;;0.50;0.13;;;16.50;66.20;;;;;;4986369;28;48219;-74
2023/03/10 10:43:29;;;;;;;2.92;0.17;;;16.50;66.40;;;;;;4986336;28;45223;-74
2023/03/10 10:46:03;;;;;;;0.32;0.10;;;16.50;66.50;;;;;;4986134;28;45252;-75
2023/03/10 10:48:37;;;;;;;0.47;0.13;;;16.50;66.60;;;;;;4986194;28;45213;-74
2023/03/10 10:51:04;;;;;;;1.05;0.10;;;16.50;66.80;;;;;;4986299;28;48469;-75
2023/03/10 10:53:33;;;;;;;0.93;0.00;;;16.50;66.90;;;;;;4986367;28;45195;-74
2023/03/10 10:56:05;;;;;;;0.80;0.20;;;16.50;67.00;;;;;;4986178;28;45270;-72
2023/03/10 10:58:34;;;;;;;0.60;0.15;;;16.50;66.90;;;;;;4986305;28;45204;-73
2023/03/10 11:01:04;;;;;;;0.35;0.15;;;16.50;67.20;;;;;;4985975;28;45174;-74
2023/03/10 11:03:33;;;;;;;0.57;0.10;;;16.50;67.10;;;;;;4985867;28;45208;-75
2023/03/10 11:06:01;;;;;;;0.00;0.00;;;16.50;67.20;;;;;;4986032;28;45232;-75
2023/03/10 11:08:33;;;;;;;0.50;0.10;;;16.60;67.30;;;;;;4986270;28;45605;-73
2023/03/10 11:11:11;;;;;;;0.40;0.20;;;16.60;67.20;;;;;;4985912;28;45388;-73
2023/03/10 11:13:49;;;;;;;0.00;0.00;;;16.60;67.20;;;;;;4985880;28;45136;-74
2023/03/10 11:16:25;;;;;;;0.57;0.30;;;16.60;67.50;;;;;;4986431;28;45193;-74
2023/03/10 11:18:58;;;;;;;0.55;0.10;;;16.60;67.60;;;;;;4986450;28;45295;-74
2023/03/10 11:21:28;;;;;;;0.13;0.03;;;16.50;67.50;;;;;;4985778;28;47582;-75
2023/03/10 11:24:04;;;;;;;0.10;0.05;;;16.50;67.60;;;;;;4985926;28;45330;-75
2023/03/10 11:26:47;;;;;;;0.10;0.08;;;16.50;67.30;;;;;;4986316;28;45149;-75
2023/03/10 11:29:24;;;;;;;0.88;0.25;;;16.50;67.40;;;;;;4986147;28;45201;-73
2023/03/10 11:31:56;;;;;;;0.43;0.20;;;16.50;67.50;;;;;;4982468;28;47040;-69
2023/03/10 11:34:29;;;;;;;9.35;0.82;;;16.50;67.50;;;;;;4965467;28;45345;-78
2023/03/10 11:37:12;;;;;;;8.00;0.30;;;16.50;67.40;;;;;;4966341;28;45306;-78
2023/03/10 12:34:45;;;;;;;0.00;0.00;;;16.50;67.70;;;;;;4968973;28;45428;-76
2023/03/10 12:50:54;;;;;;;0.17;0.00;;;16.40;68.10;;;;;;4968611;28;45395;-75
2023/03/10 12:53:32;;;;;;;0.00;0.00;;;16.40;68.30;;;;;;4965615;28;45223;-76
2023/03/10 12:56:21;;;;;;;0.10;0.10;;;16.40;67.90;;;;;;4968307;28;45295;-77
2023/03/10 12:58:54;;;;;;;0.00;0.00;;;16.40;68.20;;;;;;4968613;28;45127;-77
2023/03/10 13:01:25;;;;;;;0.40;0.00;;;16.40;68.00;;;;;;4967985;28;46978;-77
2023/03/10 13:03:54;;;;;;;3.22;0.13;;;16.40;68.10;;;;;;4968305;28;45380;-77
2023/03/10 13:06:24;;;;;;;0.20;0.20;;;16.40;68.20;;;;;;4968323;28;45094;-77
2023/03/10 13:08:54;;;;;;;0.10;0.00;;;16.40;68.30;;;;;;4968318;28;45190;-77
2023/03/10 13:11:35;;;;;;;0.15;0.00;;;16.40;68.30;;;;;;4968079;28;45754;-77
2023/03/10 13:14:11;;;;;;;0.00;0.00;;;16.40;68.20;;;;;;4968025;28;45162;-77
2023/03/10 13:16:39;;;;;;;0.13;0.13;;;16.40;68.30;;;;;;4968377;28;45378;-77
2023/03/10 13:19:08;;;;;;;0.10;0.00;;;16.40;68.30;;;;;;4968293;28;45168;-77
2023/03/10 13:21:41;;;;;;;0.05;0.00;;;16.40;68.40;;;;;;4969695;28;45805;-77
2023/03/10 13:24:25;;;;;;;0.20;0.10;;;16.40;68.40;;;;;;4968014;28;45312;-77
2023/03/10 13:27:09;;;;;;;0.03;0.00;;;16.40;68.70;;;;;;4968059;28;45123;-77
2023/03/10 13:29:38;;;;;;;0.22;0.13;;;16.40;68.50;;;;;;4968369;28;45408;-76
2023/03/10 13:32:06;;;;;;;0.00;0.00;;;16.40;68.70;;;;;;4967312;28;46613;-77
2023/03/10 13:34:35;;;;;;;0.10;0.00;;;16.40;68.80;;;;;;4967807;28;45182;-76
2023/03/10 13:37:08;;;;;;;0.00;0.00;;;16.40;68.90;;;;;;4967896;28;45203;-77
2023/03/10 13:39:37;;;;;;;3.10;0.10;;;16.40;68.90;;;;;;4967196;28;45563;-77
2023/03/10 13:42:19;;;;;;;0.10;0.10;;;16.40;69.00;;;;;;4967318;28;46741;-77
2023/03/10 13:44:49;;;;;;;0.77;0.10;;;16.40;68.70;;;;;;4967304;28;45230;-77
2023/03/10 13:47:18;;;;;;;0.00;0.00;;;16.40;68.60;;;;;;4968139;28;45216;-77
2023/03/10 13:49:51;;;;;;;0.10;0.00;;;16.40;68.50;;;;;;4967830;28;45308;-76
2023/03/10 13:52:26;;;;;;;0.00;0.00;;;16.40;68.40;;;;;;4967732;28;46156;-76
2023/03/10 13:55:05;;;;;;;0.00;0.00;;;16.40;68.30;;;;;;4967221;28;45319;-76
2023/03/10 13:57:36;;;;;;;0.00;0.00;;;16.50;68.10;;;;;;4967311;28;45133;-77
2023/03/10 14:00:08;;;;;;;0.00;0.00;;;16.50;67.90;;;;;;4967848;28;45487;-76
2023/03/10 14:02:38;;;;;;;0.15;0.00;;;16.50;67.70;;;;;;4966903;28;46466;-77
2023/03/10 14:05:07;;;;;;;0.00;0.00;;;16.50;67.60;;;;;;4967053;28;45134;-76